createdAt,value
2019-06-07T00:01:21.123Z,69.38
2019-06-07T00:03:51.663Z,69.71
2019-06-07T00:06:25.494Z,70.15
2019-06-07T00:08:54.281Z,70.46
2019-06-07T00:11:24.763Z,71.31
2019-06-07T00:13:55.213Z,71.31
2019-06-07T00:16:25.751Z,71.07
2019-06-07T00:18:56.199Z,70.97
2019-06-07T00:22:12.662Z,71.19
2019-06-07T00:23:58.946Z,71.16
2019-06-07T00:26:29.436Z,71.30
2019-06-07T00:28:59.934Z,71.40
2019-06-07T00:31:30.400Z,72.40
2019-06-07T00:34:00.930Z,72.13
2019-06-07T00:36:31.372Z,73.39
2019-06-07T00:39:02.679Z,73.16
2019-06-07T00:41:33.118Z,72.85
2019-06-07T00:44:03.707Z,72.64
2019-06-07T00:46:34.188Z,72.65
2019-06-07T00:49:04.738Z,72.69
2019-06-07T00:51:50.041Z,72.27
2019-06-07T00:54:07.506Z,72.07
2019-06-07T00:56:37.972Z,71.91
2019-06-07T00:59:11.572Z,72.04
2019-06-07T01:01:40.790Z,71.98
2019-06-07T01:04:12.982Z,72.64
2019-06-07T01:06:43.682Z,73.20
2019-06-07T01:09:15.341Z,73.10
2019-06-07T01:11:45.881Z,72.99
2019-06-07T01:14:20.356Z,73.66
2019-06-07T01:16:57.508Z,73.90
2019-06-07T01:19:22.241Z,73.35
2019-06-07T01:21:52.968Z,73.12
2019-06-07T01:24:25.778Z,73.13
2019-06-07T01:26:55.592Z,73.01
2019-06-07T01:29:29.444Z,72.94
2019-06-07T01:31:58.233Z,72.95
2019-06-07T01:34:29.090Z,72.86
2019-06-07T01:36:59.659Z,73.09
2019-06-07T01:39:31.786Z,73.13
2019-06-07T01:42:02.455Z,73.09
2019-06-07T01:44:32.940Z,73.04
2019-06-07T01:47:03.400Z,73.04
2019-06-07T01:49:33.887Z,72.97
2019-06-07T01:52:04.477Z,72.93
2019-06-07T01:54:56.609Z,73.27
2019-06-07T01:57:07.113Z,73.33
2019-06-07T01:59:37.572Z,74.12
2019-06-07T02:02:08.021Z,74.04
2019-06-07T02:04:38.510Z,73.55
2019-06-07T02:07:08.989Z,73.55
2019-06-07T02:09:39.474Z,73.67
2019-06-07T02:12:25.598Z,73.73
2019-06-07T02:14:42.144Z,73.93
2019-06-07T02:17:12.645Z,73.67
2019-06-07T02:19:43.162Z,73.96
2019-06-07T02:22:13.605Z,73.54
2019-06-07T02:24:44.118Z,73.53
2019-06-07T02:27:14.569Z,73.46
2019-06-07T02:29:45.021Z,73.46
2019-06-07T02:32:15.549Z,73.60
2019-06-07T02:34:46.037Z,73.57
2019-06-07T02:37:16.554Z,73.90
2019-06-07T02:39:47.038Z,73.84
2019-06-07T02:42:17.618Z,73.77
2019-06-07T02:44:48.125Z,73.58
2019-06-07T02:47:22.722Z,73.81
2019-06-07T02:49:53.310Z,74.12
2019-06-07T02:52:27.359Z,73.93
2019-06-07T02:54:55.947Z,73.63
2019-06-07T02:57:29.313Z,73.55
2019-06-07T03:00:16.336Z,73.62
2019-06-07T03:02:38.413Z,73.45
2019-06-07T03:05:04.119Z,73.50
2019-06-07T03:07:44.176Z,73.60
2019-06-07T03:10:09.377Z,73.54
2019-06-07T03:12:40.987Z,73.38
2019-06-07T03:15:30.170Z,73.61
2019-06-07T03:17:53.160Z,73.77
2019-06-07T03:20:24.156Z,73.93
2019-06-07T03:22:56.343Z,73.12
2019-06-07T03:25:30.844Z,73.43
2019-06-07T03:28:01.895Z,73.45
2019-06-07T03:30:47.007Z,73.44
2019-06-07T03:33:04.539Z,73.67
2019-06-07T03:35:37.331Z,73.50
2019-06-07T03:38:07.206Z,73.66
2019-06-07T03:40:39.956Z,73.69
2019-06-07T03:43:09.844Z,73.53
2019-06-07T03:45:41.657Z,73.54
2019-06-07T03:48:12.246Z,73.42
2019-06-07T03:50:42.705Z,73.26
2019-06-07T03:53:13.187Z,72.84
2019-06-07T03:55:43.635Z,72.46
2019-06-07T03:58:32.086Z,71.74
2019-06-07T04:00:46.259Z,71.08
2019-06-07T04:03:32.827Z,70.36
2019-06-07T04:05:49.731Z,69.67
2019-06-07T04:08:20.392Z,68.63
2019-06-07T04:10:59.675Z,67.73
2019-06-07T04:13:23.012Z,68.35
2019-06-07T04:15:53.531Z,67.24
2019-06-07T04:18:24.009Z,66.47
2019-06-07T04:20:54.525Z,66.41
2019-06-07T04:23:28.295Z,65.74
2019-06-07T04:25:57.234Z,65.51
2019-06-07T04:29:19.140Z,65.54
2019-06-07T04:30:59.921Z,65.47
2019-06-07T04:33:31.224Z,64.47
2019-06-07T04:36:04.161Z,64.33
2019-06-07T04:38:39.271Z,63.20
2019-06-07T04:41:09.895Z,64.31
2019-06-07T04:43:42.883Z,63.29
2019-06-07T04:46:14.100Z,62.52
2019-06-07T04:48:46.056Z,62.35
2019-06-07T04:51:17.189Z,61.56
2019-06-07T04:53:47.602Z,60.98
2019-06-07T04:56:18.062Z,61.00
2019-06-07T04:58:48.521Z,59.74
2019-06-07T05:01:27.452Z,59.42
2019-06-07T05:03:51.507Z,58.73
2019-06-07T05:06:22.011Z,58.12
2019-06-07T05:08:52.494Z,55.97
2019-06-07T05:11:23.192Z,55.72
2019-06-07T05:13:53.649Z,54.69
2019-06-07T05:16:24.161Z,54.04
2019-06-07T05:18:54.643Z,54.00
2019-06-07T05:21:25.324Z,53.89
2019-06-07T05:24:06.590Z,54.06
2019-06-07T05:26:28.287Z,53.84
2019-06-07T05:29:02.139Z,54.19
2019-06-07T05:31:36.817Z,53.38
2019-06-07T05:34:05.003Z,52.88
2019-06-07T05:36:36.680Z,51.87
2019-06-07T05:39:08.469Z,52.04
2019-06-07T05:41:42.747Z,51.04
2019-06-07T05:44:14.952Z,50.11
2019-06-07T05:46:47.225Z,50.32
2019-06-07T05:49:16.852Z,49.30
2019-06-07T05:51:48.825Z,49.88
2019-06-07T05:54:19.353Z,49.18
2019-06-07T05:56:49.885Z,50.01
2019-06-07T05:59:20.482Z,49.25
2019-06-07T06:02:01.957Z,48.69
2019-06-07T06:04:23.233Z,48.72
2019-06-07T06:06:53.820Z,48.77
2019-06-07T06:09:24.564Z,48.33
2019-06-07T06:12:02.061Z,48.35
2019-06-07T06:14:27.496Z,47.60
2019-06-07T06:16:58.043Z,47.17
2019-06-07T06:19:28.683Z,47.48
2019-06-07T06:21:59.171Z,48.03
2019-06-07T06:24:29.713Z,47.38
2019-06-07T06:27:18.599Z,47.38
2019-06-07T06:29:32.481Z,48.27
2019-06-07T06:32:40.605Z,47.62
2019-06-07T06:34:39.392Z,46.78
2019-06-07T06:37:07.486Z,47.20
2019-06-07T06:39:39.468Z,47.04
2019-06-07T06:42:10.058Z,45.84
2019-06-07T06:44:42.555Z,45.27
2019-06-07T06:47:12.741Z,45.92
2019-06-07T06:49:44.210Z,46.02
2019-06-07T06:52:15.527Z,45.72
2019-06-07T06:54:53.743Z,45.17
2019-06-07T06:57:20.278Z,44.38
2019-06-07T06:59:52.518Z,44.26
2019-06-07T07:02:22.873Z,43.69
2019-06-07T07:04:54.025Z,42.45
2019-06-07T07:07:26.890Z,41.04
2019-06-07T07:10:00.044Z,41.56
2019-06-07T07:12:30.846Z,41.83
2019-06-07T07:15:01.414Z,41.49
2019-06-07T07:17:47.885Z,40.46
2019-06-07T07:20:04.458Z,41.41
2019-06-07T07:22:34.948Z,42.14
2019-06-07T07:25:05.901Z,41.30
2019-06-07T07:27:36.573Z,41.53
2019-06-07T07:30:35.336Z,41.89
2019-06-07T07:32:40.020Z,42.11
2019-06-07T07:35:10.616Z,42.31
2019-06-07T07:37:41.125Z,41.89
2019-06-07T07:40:55.567Z,42.96
2019-06-07T07:42:45.212Z,42.33
2019-06-07T07:45:16.374Z,41.38
2019-06-07T07:48:03.205Z,41.76
2019-06-07T07:50:19.491Z,41.00
2019-06-07T07:52:58.309Z,41.12
2019-06-07T07:55:22.205Z,40.40
2019-06-07T07:58:01.144Z,40.46
2019-06-07T08:00:50.125Z,39.81
2019-06-07T08:03:04.086Z,39.14
2019-06-07T08:05:42.301Z,39.37
2019-06-07T08:08:07.431Z,38.95
2019-06-07T08:10:36.500Z,38.36
2019-06-07T08:13:23.609Z,38.24
2019-06-07T08:15:39.307Z,38.40
2019-06-07T08:18:10.051Z,38.57
2019-06-07T08:21:01.320Z,39.00
2019-06-07T08:23:12.820Z,38.13
2019-06-07T08:25:43.823Z,38.21
2019-06-07T08:28:14.317Z,38.71
2019-06-07T08:30:54.353Z,38.63
2019-06-07T08:33:25.835Z,38.29
2019-06-07T08:36:19.502Z,38.31
2019-06-07T08:38:29.302Z,38.68
2019-06-07T08:41:00.803Z,38.55
2019-06-07T08:43:25.950Z,37.54
2019-06-07T08:46:03.718Z,38.33
2019-06-07T08:48:30.397Z,37.41
2019-06-07T08:51:08.077Z,37.88
2019-06-07T08:53:33.301Z,37.51
2019-06-07T08:56:09.878Z,37.65
2019-06-07T08:58:36.165Z,37.37
2019-06-07T09:01:08.835Z,36.76
2019-06-07T09:03:39.404Z,36.45
2019-06-07T09:06:53.970Z,35.69
2019-06-07T09:08:42.155Z,35.66
2019-06-07T09:11:12.665Z,36.59
2019-06-07T09:13:43.153Z,35.88
2019-06-07T09:16:13.661Z,35.36
2019-06-07T09:18:45.139Z,35.20
2019-06-07T09:21:15.804Z,35.80
2019-06-07T09:23:46.330Z,34.96
2019-06-07T09:26:18.864Z,34.61
2019-06-07T09:28:49.368Z,34.72
2019-06-07T09:31:19.929Z,33.85
2019-06-07T09:33:50.486Z,34.93
2019-06-07T09:36:20.969Z,34.80
2019-06-07T09:38:52.080Z,34.34
2019-06-07T09:41:42.758Z,34.96
2019-06-07T09:44:04.689Z,34.65
2019-06-07T09:46:27.246Z,34.13
2019-06-07T09:51:29.867Z,32.86
2019-06-07T09:54:01.299Z,33.40
2019-06-07T09:56:33.308Z,33.58
2019-06-07T09:59:09.121Z,34.24
2019-06-07T10:01:36.382Z,33.62
2019-06-07T10:04:16.589Z,32.37
2019-06-07T10:06:39.149Z,30.66
2019-06-07T10:11:42.377Z,31.23
2019-06-07T10:14:13.123Z,33.38
2019-06-07T10:16:47.036Z,32.74
2019-06-07T10:19:17.326Z,33.44
2019-06-07T10:21:47.957Z,33.01
2019-06-07T10:24:18.426Z,33.42
2019-06-07T10:26:49.020Z,33.55
2019-06-07T10:29:19.484Z,33.03
2019-06-07T10:31:49.972Z,32.77
2019-06-07T10:34:20.465Z,32.20
2019-06-07T10:36:51.038Z,30.98
2019-06-07T10:39:21.566Z,30.87
2019-06-07T10:41:54.055Z,31.41
2019-06-07T10:44:24.268Z,31.41
2019-06-07T10:46:54.788Z,30.27
2019-06-07T10:49:25.284Z,30.83
2019-06-07T10:51:55.786Z,30.30
2019-06-07T10:54:30.562Z,28.20
2019-06-07T10:56:58.594Z,29.10
2019-06-07T10:59:29.078Z,30.52
2019-06-07T11:01:59.650Z,29.32
2019-06-07T11:04:30.157Z,29.30
2019-06-07T11:07:00.628Z,30.05
2019-06-07T11:09:32.054Z,29.49
2019-06-07T11:12:02.543Z,29.88
2019-06-07T11:14:33.026Z,29.79
2019-06-07T11:17:05.040Z,30.05
2019-06-07T11:19:35.749Z,29.96
2019-06-07T11:22:06.438Z,30.31
2019-06-07T11:24:36.913Z,29.80
2019-06-07T11:27:09.175Z,30.09
2019-06-07T11:29:39.765Z,29.93
2019-06-07T11:32:10.558Z,30.03
2019-06-07T11:34:41.263Z,29.24
2019-06-07T11:37:13.622Z,29.17
2019-06-07T11:39:43.983Z,29.07
2019-06-07T11:42:14.558Z,28.45
2019-06-07T11:44:56.401Z,29.11
2019-06-07T11:47:18.427Z,29.17
2019-06-07T11:49:49.097Z,27.73
2019-06-07T11:52:19.654Z,27.58
2019-06-07T11:54:50.206Z,27.65
2019-06-07T11:57:20.711Z,28.28
2019-06-07T11:59:51.634Z,27.83
2019-06-07T12:02:22.149Z,28.04
2019-06-07T12:04:52.655Z,28.44
2019-06-07T12:07:23.258Z,28.56
2019-06-07T12:09:56.781Z,29.08
2019-06-07T12:12:26.543Z,29.38
2019-06-07T12:14:57.111Z,29.80
2019-06-07T12:17:27.607Z,29.45
2019-06-07T12:19:58.121Z,28.98
2019-06-07T12:22:28.594Z,28.65
2019-06-07T12:24:59.154Z,29.43
2019-06-07T12:27:29.699Z,28.22
2019-06-07T12:30:00.159Z,28.69
2019-06-07T12:32:30.697Z,29.77
2019-06-07T12:35:01.324Z,29.12
2019-06-07T12:37:43.125Z,29.49
2019-06-07T12:40:04.666Z,29.80
2019-06-07T12:42:35.140Z,30.15
2019-06-07T12:45:06.066Z,29.91
2019-06-07T12:47:37.947Z,29.49
2019-06-07T12:50:09.319Z,28.19
2019-06-07T12:52:40.751Z,27.43
2019-06-07T12:55:13.773Z,27.14
2019-06-07T12:57:44.602Z,27.46
2019-06-07T13:00:16.150Z,27.53
2019-06-07T13:02:46.745Z,27.31
2019-06-07T13:05:18.019Z,27.61
2019-06-07T13:07:48.568Z,26.74
2019-06-07T13:10:20.034Z,26.14
2019-06-07T13:12:50.732Z,27.08
2019-06-07T13:15:25.939Z,26.94
2019-06-07T13:18:04.199Z,27.63
2019-06-07T13:20:37.316Z,27.65
2019-06-07T13:23:08.040Z,26.86
2019-06-07T13:25:46.083Z,25.67
2019-06-07T13:28:10.686Z,25.18
2019-06-07T13:30:41.280Z,25.08
2019-06-07T13:33:11.772Z,25.64
2019-06-07T13:35:42.249Z,25.19
2019-06-07T13:38:16.058Z,25.53
2019-06-07T13:40:46.743Z,26.18
2019-06-07T13:43:17.330Z,25.78
2019-06-07T13:45:47.813Z,25.83
2019-06-07T13:48:19.199Z,26.17
2019-06-07T13:50:49.820Z,26.14
2019-06-07T13:53:20.734Z,26.19
2019-06-07T13:55:51.310Z,25.96
2019-06-07T13:58:22.633Z,26.32
2019-06-07T14:00:53.262Z,26.63
2019-06-07T14:03:28.675Z,26.38
2019-06-07T14:05:56.066Z,26.41
2019-06-07T14:08:27.300Z,26.51
2019-06-07T14:10:57.967Z,26.79
2019-06-07T14:13:28.430Z,26.44
2019-06-07T14:15:58.995Z,26.33
2019-06-07T14:18:30.608Z,26.52
2019-06-07T14:21:01.291Z,26.55
2019-06-07T14:23:46.185Z,26.65
2019-06-07T14:26:03.905Z,26.75
2019-06-07T14:28:34.415Z,26.55
2019-06-07T14:31:04.915Z,27.18
2019-06-07T14:33:35.431Z,27.01
2019-06-07T14:36:06.029Z,26.98
2019-06-07T14:38:37.672Z,27.20
2019-06-07T14:41:08.413Z,26.79
2019-06-07T14:43:38.964Z,26.68
2019-06-07T14:46:09.482Z,26.99
2019-06-07T14:48:39.974Z,27.12
2019-06-07T14:51:10.558Z,27.08
2019-06-07T14:53:41.074Z,27.50
2019-06-07T14:56:11.533Z,27.47
2019-06-07T14:58:43.514Z,27.82
2019-06-07T15:01:14.177Z,27.52
2019-06-07T15:03:44.668Z,27.60
2019-06-07T15:06:15.127Z,27.54
2019-06-07T15:08:45.642Z,27.95
2019-06-07T15:11:16.096Z,28.70
2019-06-07T15:13:46.610Z,29.04
2019-06-07T15:16:17.102Z,29.09
2019-06-07T15:18:47.593Z,29.29
2019-06-07T15:21:18.162Z,29.12
2019-06-07T15:23:48.610Z,29.01
2019-06-07T15:26:19.097Z,29.29
2019-06-07T15:28:49.551Z,29.32
2019-06-07T15:31:20.051Z,29.01
2019-06-07T15:33:50.540Z,29.21
2019-06-07T15:36:21.103Z,29.22
2019-06-07T15:38:51.579Z,29.62
2019-06-07T15:41:22.043Z,29.32
2019-06-07T15:43:52.541Z,29.42
2019-06-07T15:46:22.990Z,29.78
2019-06-07T15:48:53.518Z,30.00
2019-06-07T15:51:24.088Z,29.88
2019-06-07T15:53:54.545Z,29.81
2019-06-07T15:56:25.044Z,30.35
2019-06-07T15:58:55.605Z,30.19
2019-06-07T16:01:26.106Z,30.18
2019-06-07T16:03:56.561Z,30.22
2019-06-07T16:06:27.058Z,30.45
2019-06-07T16:08:57.508Z,30.63
2019-06-07T16:11:28.014Z,30.90
2019-06-07T16:13:58.860Z,31.32
2019-06-07T16:16:29.323Z,31.50
2019-06-07T16:18:59.821Z,31.59
2019-06-07T16:21:30.338Z,32.20
2019-06-07T16:24:00.803Z,32.06
2019-06-07T16:26:31.379Z,32.54
2019-06-07T16:29:01.911Z,32.25
2019-06-07T16:31:32.401Z,32.61
2019-06-07T16:34:02.968Z,32.65
2019-06-07T16:36:33.563Z,32.98
2019-06-07T16:39:05.095Z,33.25
2019-06-07T16:41:36.516Z,33.21
2019-06-07T16:44:07.012Z,33.25
2019-06-07T16:46:38.673Z,33.40
2019-06-07T16:49:09.285Z,33.63
2019-06-07T16:51:41.165Z,33.87
2019-06-07T16:54:11.741Z,33.75
2019-06-07T16:56:46.277Z,34.02
2019-06-07T16:59:14.385Z,34.40
2019-06-07T17:01:45.299Z,35.15
2019-06-07T17:04:15.996Z,35.87
2019-06-07T17:06:48.178Z,34.54
2019-06-07T17:09:18.880Z,34.17
2019-06-07T17:11:49.324Z,34.22
2019-06-07T17:14:19.827Z,35.21
2019-06-07T17:16:50.424Z,35.47
2019-06-07T17:19:20.858Z,35.72
2019-06-07T17:21:51.364Z,36.18
2019-06-07T17:24:21.821Z,36.68
2019-06-07T17:26:52.285Z,37.37
2019-06-07T17:29:22.790Z,38.63
2019-06-07T17:31:53.252Z,39.38
2019-06-07T17:34:23.780Z,39.65
2019-06-07T17:36:54.292Z,39.58
2019-06-07T17:39:24.758Z,39.30
2019-06-07T17:42:02.219Z,38.98
2019-06-07T17:44:27.427Z,39.83
2019-06-07T17:46:57.924Z,40.73
2019-06-07T17:49:28.443Z,41.12
2019-06-07T17:51:59.002Z,42.42
2019-06-07T17:54:29.460Z,43.96
2019-06-07T17:56:59.912Z,43.96
2019-06-07T17:59:30.369Z,43.90
2019-06-07T18:02:14.031Z,44.63
2019-06-07T18:04:33.147Z,44.63
2019-06-07T18:07:03.813Z,44.89
2019-06-07T18:09:37.046Z,45.99
2019-06-07T18:12:07.600Z,46.46
2019-06-07T18:14:38.276Z,47.12
2019-06-07T18:17:08.785Z,47.01
2019-06-07T18:19:39.325Z,47.95
2019-06-07T18:22:09.791Z,48.95
2019-06-07T18:24:40.290Z,49.41
2019-06-07T18:27:10.851Z,49.63
2019-06-07T18:29:41.400Z,50.11
2019-06-07T18:32:13.655Z,50.51
2019-06-07T18:34:44.278Z,50.82
2019-06-07T18:37:14.750Z,51.25
2019-06-07T18:39:45.241Z,51.99
2019-06-07T18:42:15.731Z,52.36
2019-06-07T18:44:46.943Z,53.42
2019-06-07T18:47:17.503Z,53.62
2019-06-07T18:49:49.328Z,53.76
2019-06-07T18:52:24.423Z,53.95
2019-06-07T18:54:55.159Z,54.12
2019-06-07T18:57:25.565Z,54.30
2019-06-07T18:59:56.590Z,54.45
2019-06-07T19:02:27.090Z,54.37
2019-06-07T19:04:58.417Z,54.05
2019-06-07T19:07:28.974Z,54.23
2019-06-07T19:09:59.558Z,55.02
2019-06-07T19:12:30.029Z,55.05
2019-06-07T19:15:00.522Z,55.10
2019-06-07T19:17:31.153Z,55.34
2019-06-07T19:20:01.626Z,56.00
2019-06-07T19:22:32.112Z,55.97
2019-06-07T19:25:02.633Z,55.96
2019-06-07T19:27:33.299Z,56.23
2019-06-07T19:30:04.077Z,56.37
2019-06-07T19:32:34.560Z,56.74
2019-06-07T19:35:05.463Z,56.96
2019-06-07T19:37:35.964Z,56.90
2019-06-07T19:40:07.234Z,57.03
2019-06-07T19:42:37.768Z,56.97
2019-06-07T19:45:28.821Z,57.24
2019-06-07T19:47:41.037Z,57.29
2019-06-07T19:50:12.784Z,57.24
2019-06-07T19:52:43.275Z,57.29
2019-06-07T19:55:14.760Z,57.53
2019-06-07T19:57:45.319Z,57.58
2019-06-07T20:00:16.170Z,58.27
2019-06-07T20:02:46.673Z,57.19
2019-06-07T20:05:17.441Z,55.83
2019-06-07T20:07:48.054Z,56.14
2019-06-07T20:10:19.606Z,56.97
2019-06-07T20:12:50.106Z,57.23
2019-06-07T20:15:29.187Z,58.19
2019-06-07T20:17:53.169Z,57.95
2019-06-07T20:20:24.066Z,57.50
2019-06-07T20:22:54.609Z,55.44
2019-06-07T20:25:25.093Z,52.97
2019-06-07T20:27:56.954Z,51.68
2019-06-07T20:30:27.613Z,51.48
2019-06-07T20:32:59.678Z,50.80
2019-06-07T20:35:30.343Z,50.38
2019-06-07T20:38:01.130Z,50.22
2019-06-07T20:40:31.608Z,50.82
2019-06-07T20:43:03.433Z,50.07
2019-06-07T20:45:34.469Z,50.78
2019-06-07T20:48:06.196Z,49.94
2019-06-07T20:50:36.886Z,50.13
2019-06-07T20:53:07.343Z,50.38
2019-06-07T20:55:37.828Z,50.00
2019-06-07T20:58:09.426Z,49.73
2019-06-07T21:00:40.051Z,49.92
2019-06-07T21:03:10.510Z,50.25
2019-06-07T21:05:41.003Z,50.60
2019-06-07T21:08:12.949Z,50.67
2019-06-07T21:10:43.772Z,51.22
2019-06-07T21:13:14.236Z,51.22
2019-06-07T21:15:48.872Z,51.40
2019-06-07T21:18:19.863Z,51.42
2019-06-07T21:20:49.116Z,51.77
2019-06-07T21:23:19.573Z,52.17
2019-06-07T21:25:50.110Z,52.21
2019-06-07T21:28:20.544Z,52.29
2019-06-07T21:30:51.049Z,52.38
2019-06-07T21:33:21.505Z,52.70
2019-06-07T21:35:51.969Z,53.68
2019-06-07T21:38:22.424Z,53.64
2019-06-07T21:40:52.954Z,53.79
2019-06-07T21:43:23.446Z,53.57
2019-06-07T21:46:04.673Z,54.27
2019-06-07T21:48:26.103Z,54.36
2019-06-07T21:50:56.567Z,54.46
2019-06-07T21:53:27.043Z,54.75
2019-06-07T21:55:57.553Z,54.68
2019-06-07T21:58:28.007Z,54.96
2019-06-07T22:01:14.383Z,55.26
2019-06-07T22:03:45.202Z,55.32
2019-06-07T22:06:16.070Z,55.71
2019-06-07T22:08:46.521Z,55.61
2019-06-07T22:11:17.089Z,55.57
2019-06-07T22:13:47.621Z,55.51
2019-06-07T22:16:28.448Z,55.55
2019-06-07T22:18:50.376Z,55.69
2019-06-07T22:21:20.862Z,56.11
2019-06-07T22:23:51.341Z,57.29
2019-06-07T22:26:21.939Z,57.74
2019-06-07T22:28:52.388Z,57.91
2019-06-07T22:31:22.883Z,58.32
2019-06-07T22:33:53.359Z,58.22
2019-06-07T22:36:23.852Z,58.74
2019-06-07T22:38:54.379Z,59.82
2019-06-07T22:41:24.872Z,61.84
2019-06-07T22:43:55.352Z,63.42
2019-06-07T22:46:36.875Z,64.24
2019-06-07T22:48:58.135Z,64.36
2019-06-07T22:51:28.592Z,64.98
2019-06-07T22:53:59.089Z,65.12
2019-06-07T22:56:34.905Z,66.38
2019-06-07T22:59:05.668Z,65.92
2019-06-07T23:01:36.204Z,66.12
2019-06-07T23:04:06.665Z,66.03
2019-06-07T23:06:37.271Z,67.74
2019-06-07T23:09:08.825Z,69.32
2019-06-07T23:11:39.381Z,68.34
2019-06-07T23:14:11.152Z,68.46
2019-06-07T23:16:54.786Z,68.40
2019-06-07T23:19:13.860Z,68.87
2019-06-07T23:21:44.331Z,69.08
2019-06-07T23:24:14.781Z,68.96
2019-06-07T23:26:45.244Z,69.02
2019-06-07T23:29:16.579Z,68.28
2019-06-07T23:31:47.082Z,68.62
2019-06-07T23:34:18.758Z,69.61
2019-06-07T23:36:49.301Z,68.88
2019-06-07T23:39:21.854Z,70.45
2019-06-07T23:41:51.929Z,69.22
2019-06-07T23:44:22.425Z,69.13
2019-06-07T23:46:52.887Z,69.55
2019-06-07T23:49:23.387Z,68.70
2019-06-07T23:51:53.872Z,68.69
2019-06-07T23:54:24.329Z,68.75
2019-06-07T23:56:54.837Z,68.45
2019-06-07T23:59:25.349Z,68.10
